Time,TemperatureF,DewpointF,PressureIn,WindDirection,WindDirectionDegrees,WindSpeedMPH,WindSpeedGustMPH,Humidity,HourlyPrecipIn,Conditions,Clouds,dailyrainin,SoftwareType,DateUTC
2013-02-04 00:00:00,15.9,10.8,30.01,West,261,7.0,10.0,80,0.00,,,0.00,VWS V14.01,2013-02-04 06:00:00,
2013-02-04 00:01:00,15.9,10.8,30.01,West,269,6.0,10.0,80,0.00,,,0.00,VWS V14.01,2013-02-04 06:01:00,
2013-02-04 00:05:00,15.9,11.1,30.00,West,281,1.0,9.0,81,0.00,,,0.00,VWS V14.01,2013-02-04 06:05:00,
2013-02-04 00:07:00,15.9,11.1,30.00,WSW,254,2.0,8.0,81,0.00,,,0.00,VWS V14.01,2013-02-04 06:07:00,
2013-02-04 00:10:00,15.8,11.3,30.00,West,261,5.0,6.0,82,0.00,,,0.00,VWS V14.01,2013-02-04 06:10:00,
2013-02-04 00:12:00,15.8,11.3,30.00,WNW,293,0.0,8.0,82,0.00,,,0.00,VWS V14.01,2013-02-04 06:12:00,
2013-02-04 00:15:00,15.7,11.2,30.00,West,264,5.0,8.0,82,0.00,,,0.00,VWS V14.01,2013-02-04 06:15:00,
2013-02-04 00:17:00,15.6,11.1,30.00,WSW,254,5.0,8.0,82,0.00,,,0.00,VWS V14.01,2013-02-04 06:17:00,
2013-02-04 00:20:00,15.4,12.0,29.99,WNW,296,2.0,5.0,86,0.00,,FEW070,0.00,VWS V14.01,2013-02-04 06:20:00,
2013-02-04 00:22:00,15.7,11.5,30.00,West,265,5.0,7.0,83,0.00,,,0.00,VWS V14.01,2013-02-04 06:22:00,
2013-02-04 00:25:00,15.6,11.4,30.00,WSW,248,2.0,8.0,83,0.00,,,0.00,VWS V14.01,2013-02-04 06:25:00,
2013-02-04 00:27:00,15.6,11.4,30.00,West,263,2.0,8.0,83,0.00,,,0.00,VWS V14.01,2013-02-04 06:27:00,
2013-02-04 00:30:00,15.7,11.5,30.00,WSW,258,2.0,6.0,83,0.00,,,0.00,VWS V14.01,2013-02-04 06:30:00,
2013-02-04 00:32:00,15.7,11.5,30.00,West,271,6.0,9.0,83,0.00,,,0.00,VWS V14.01,2013-02-04 06:32:00,
2013-02-04 00:35:00,15.6,11.4,30.00,West,268,6.0,9.0,83,0.00,,,0.00,VWS V14.01,2013-02-04 06:35:00,
2013-02-04 00:37:00,15.5,11.5,30.00,West,263,4.0,8.0,84,0.00,,,0.00,VWS V14.01,2013-02-04 06:37:00,
2013-02-04 00:40:00,15.5,11.3,29.99,West,270,3.0,8.0,83,0.00,,,0.00,VWS V14.01,2013-02-04 06:40:00,
2013-02-04 00:42:00,15.5,11.5,29.99,West,261,2.0,8.0,84,0.00,,,0.00,VWS V14.01,2013-02-04 06:42:00,
2013-02-04 00:45:00,15.5,11.5,29.99,West,268,4.0,6.0,84,0.00,,,0.00,VWS V14.01,2013-02-04 06:45:00,
2013-02-04 00:47:00,15.5,11.5,29.99,West,272,1.0,8.0,84,0.00,,,0.00,VWS V14.01,2013-02-04 06:47:00,
2013-02-04 00:50:00,15.5,11.5,29.99,West,265,1.0,8.0,84,0.00,,,0.00,VWS V14.01,2013-02-04 06:50:00,
2013-02-04 00:52:00,15.6,11.9,29.99,WNW,284,1.0,4.0,85,0.00,,,0.00,VWS V14.01,2013-02-04 06:52:00,
2013-02-04 00:55:00,15.7,12.0,29.99,West,277,3.0,5.0,85,0.00,,,0.00,VWS V14.01,2013-02-04 06:55:00,
2013-02-04 00:57:00,15.6,11.9,29.99,West,281,0.0,5.0,85,0.00,,,0.00,VWS V14.01,2013-02-04 06:57:00,
2013-02-04 01:00:00,15.6,11.9,29.99,West,280,2.0,4.0,85,0.00,,,0.00,VWS V14.01,2013-02-04 07:00:00,
2013-02-04 01:02:00,15.5,11.8,29.98,West,266,4.0,4.0,85,0.00,,,0.00,VWS V14.01,2013-02-04 07:02:00,
2013-02-04 01:05:00,15.4,11.7,29.98,West,265,2.0,4.0,85,0.00,,,0.00,VWS V14.01,2013-02-04 07:05:00,
2013-02-04 01:07:00,15.4,11.7,29.99,West,266,1.0,4.0,85,0.00,,,0.00,VWS V14.01,2013-02-04 07:07:00,
2013-02-04 01:10:00,15.4,12.0,29.99,West,268,3.0,4.0,86,0.00,,,0.00,VWS V14.01,2013-02-04 07:10:00,
2013-02-04 01:12:00,15.4,12.0,29.99,West,268,1.0,3.0,86,0.00,,,0.00,VWS V14.01,2013-02-04 07:12:00,
2013-02-04 01:15:00,15.5,12.1,29.99,WNW,293,1.0,5.0,86,0.00,,,0.00,VWS V14.01,2013-02-04 07:15:00,
2013-02-04 01:17:00,15.4,12.0,29.99,WNW,296,1.0,5.0,86,0.00,,,0.00,VWS V14.01,2013-02-04 07:17:00,
2013-02-04 01:20:00,15.4,12.0,29.99,WNW,296,2.0,5.0,86,0.00,,,0.00,VWS V14.01,2013-02-04 07:20:00,
2013-02-04 01:22:00,15.4,12.0,29.99,WNW,296,2.0,3.0,86,0.00,,,0.00,VWS V14.01,2013-02-04 07:22:00,
2013-02-04 01:25:00,15.4,12.0,29.99,WNW,296,1.0,3.0,86,0.00,,,0.00,VWS V14.01,2013-02-04 07:25:00,
2013-02-04 01:28:00,15.4,12.0,29.98,WNW,296,0.0,2.0,86,0.00,,,0.00,VWS V14.01,2013-02-04 07:28:00,
2013-02-04 01:30:00,15.5,12.1,29.98,WNW,296,1.0,2.0,86,0.00,,,0.00,VWS V14.01,2013-02-04 07:30:00,
2013-02-04 01:33:00,15.5,12.1,29.98,WNW,296,1.0,2.0,86,0.00,,,0.00,VWS V14.01,2013-02-04 07:33:00,
2013-02-04 01:35:00,15.6,12.4,29.99,WNW,296,0.0,2.0,87,0.00,,,0.00,VWS V14.01,2013-02-04 07:35:00,
2013-02-04 01:38:00,15.5,12.3,29.99,WNW,296,0.0,1.0,87,0.00,,,0.00,VWS V14.01,2013-02-04 07:38:00,
2013-02-04 01:40:00,15.5,12.1,29.99,WNW,296,1.0,2.0,86,0.00,,,0.00,VWS V14.01,2013-02-04 07:40:00,
2013-02-04 01:43:00,15.4,12.2,29.99,WNW,296,0.0,2.0,87,0.00,,,0.00,VWS V14.01,2013-02-04 07:43:00,
2013-02-04 01:45:00,15.4,12.0,29.99,WNW,296,0.0,2.0,86,0.00,,,0.00,VWS V14.01,2013-02-04 07:45:00,
2013-02-04 01:48:00,15.5,12.3,29.98,WNW,296,0.0,0.0,87,0.00,,,0.00,VWS V14.01,2013-02-04 07:48:00,
2013-02-04 01:50:00,15.5,12.3,29.98,WNW,296,0.0,0.0,87,0.00,,,0.00,VWS V14.01,2013-02-04 07:50:00,
2013-02-04 01:53:00,15.4,12.0,29.98,WNW,296,0.0,0.0,86,0.00,,,0.00,VWS V14.01,2013-02-04 07:53:00,
2013-02-04 01:55:00,15.4,12.0,29.98,WNW,296,0.0,0.0,86,0.00,,,0.00,VWS V14.01,2013-02-04 07:55:00,
2013-02-04 01:58:00,15.4,12.2,29.98,WNW,296,0.0,0.0,87,0.00,,,0.00,VWS V14.01,2013-02-04 07:58:00,
2013-02-04 02:00:00,15.4,12.2,29.98,WNW,296,0.0,0.0,87,0.00,,,0.00,VWS V14.01,2013-02-04 08:00:00,
2013-02-04 02:03:00,15.4,12.2,29.98,WNW,296,0.0,0.0,87,0.00,,,0.00,VWS V14.01,2013-02-04 08:03:00,
2013-02-04 02:05:00,15.4,12.2,29.98,WNW,296,0.0,0.0,87,0.00,,,0.00,VWS V14.01,2013-02-04 08:05:00,
2013-02-04 02:08:00,15.5,12.3,29.98,WNW,296,0.0,0.0,87,0.00,,,0.00,VWS V14.01,2013-02-04 08:08:00,
2013-02-04 02:10:00,14.5,11.3,29.95,North,360,2.0,8.0,87,0.00,,FEW250,0.00,VWS V14.01,2013-02-04 08:10:00,
2013-02-04 02:13:00,15.3,12.1,29.98,WNW,301,0.0,2.0,87,0.00,,,0.00,VWS V14.01,2013-02-04 08:13:00,
2013-02-04 02:15:00,15.3,12.1,29.98,WNW,301,0.0,0.0,87,0.00,,,0.00,VWS V14.01,2013-02-04 08:15:00,
2013-02-04 02:18:00,15.1,11.9,29.97,NW,305,0.0,2.0,87,0.00,,,0.00,VWS V14.01,2013-02-04 08:18:00,
2013-02-04 02:20:00,15.1,11.9,29.97,NW,305,0.0,1.0,87,0.00,,,0.00,VWS V14.01,2013-02-04 08:20:00,
2013-02-04 02:23:00,15.0,11.8,29.97,NW,305,0.0,0.0,87,0.00,,,0.00,VWS V14.01,2013-02-04 08:23:00,
2013-02-04 02:25:00,15.0,11.8,29.97,NW,306,0.0,0.0,87,0.00,,,0.00,VWS V14.01,2013-02-04 08:25:00,
2013-02-04 02:28:00,15.0,11.8,29.96,NW,305,0.0,0.0,87,0.00,,,0.00,VWS V14.01,2013-02-04 08:28:00,
2013-02-04 02:30:00,15.0,11.8,29.96,NW,305,0.0,0.0,87,0.00,,,0.00,VWS V14.01,2013-02-04 08:30:00,
2013-02-04 02:33:00,15.0,11.8,29.96,NW,306,0.0,1.0,87,0.00,,,0.00,VWS V14.01,2013-02-04 08:33:00,
2013-02-04 02:35:00,15.0,11.8,29.96,NW,305,0.0,1.0,87,0.00,,,0.00,VWS V14.01,2013-02-04 08:35:00,
2013-02-04 02:38:00,15.0,11.8,29.96,NW,306,0.0,0.0,87,0.00,,,0.00,VWS V14.01,2013-02-04 08:38:00,
2013-02-04 02:40:00,15.0,11.8,29.96,NW,306,0.0,0.0,87,0.00,,,0.00,VWS V14.01,2013-02-04 08:40:00,
2013-02-04 02:44:00,14.9,11.7,29.96,NW,306,1.0,2.0,87,0.00,,,0.00,VWS V14.01,2013-02-04 08:44:00,
2013-02-04 02:45:00,14.9,11.7,29.96,NW,313,2.0,2.0,87,0.00,,,0.00,VWS V14.01,2013-02-04 08:45:00,
2013-02-04 02:49:00,14.9,11.7,29.96,NW,317,1.0,3.0,87,0.00,,,0.00,VWS V14.01,2013-02-04 08:49:00,
2013-02-04 02:50:00,14.9,11.7,29.96,NW,317,1.0,3.0,87,0.00,,,0.00,VWS V14.01,2013-02-04 08:50:00,
2013-02-04 02:54:00,15.0,12.1,29.96,NNW,338,5.0,5.0,88,0.00,,,0.00,VWS V14.01,2013-02-04 08:54:00,
2013-02-04 02:55:00,14.9,11.7,29.95,NNW,338,2.0,5.0,87,0.00,,,0.00,VWS V14.01,2013-02-04 08:55:00,
2013-02-04 02:59:00,14.9,11.7,29.95,NNW,348,2.0,6.0,87,0.00,,,0.00,VWS V14.01,2013-02-04 08:59:00,
2013-02-04 03:00:00,14.9,11.7,29.95,North,350,0.0,6.0,87,0.00,,,0.00,VWS V14.01,2013-02-04 09:00:00,
2013-02-04 03:04:00,14.8,11.9,29.96,North,351,2.0,6.0,88,0.00,,,0.00,VWS V14.01,2013-02-04 09:04:00,
2013-02-04 03:05:00,14.8,11.9,29.96,NNW,344,1.0,6.0,88,0.00,,,0.00,VWS V14.01,2013-02-04 09:05:00,
2013-02-04 03:09:00,14.5,11.3,29.95,North,5,4.0,8.0,87,0.00,,,0.00,VWS V14.01,2013-02-04 09:09:00,
2013-02-04 03:10:00,14.5,11.3,29.95,North,360,2.0,8.0,87,0.00,,,0.00,VWS V14.01,2013-02-04 09:10:00,
2013-02-04 03:14:00,14.4,11.2,29.94,NNW,340,2.0,7.0,87,0.00,,,0.00,VWS V14.01,2013-02-04 09:14:00,
2013-02-04 03:15:00,14.4,11.2,29.94,NNW,340,1.0,6.0,87,0.00,,,0.00,VWS V14.01,2013-02-04 09:15:00,
2013-02-04 03:19:00,14.3,11.1,29.94,North,355,2.0,6.0,87,0.00,,,0.00,VWS V14.01,2013-02-04 09:19:00,
2013-02-04 03:20:00,14.3,11.1,29.94,North,355,2.0,6.0,87,0.00,,,0.00,VWS V14.01,2013-02-04 09:20:00,
2013-02-04 03:24:00,14.2,11.1,29.93,NW,320,2.0,6.0,87,0.00,,,0.00,VWS V14.01,2013-02-04 09:24:00,
2013-02-04 03:25:00,14.2,11.1,29.93,NW,320,2.0,6.0,87,0.00,,,0.00,VWS V14.01,2013-02-04 09:25:00,
2013-02-04 03:29:00,14.1,11.2,29.93,NW,325,2.0,6.0,88,0.00,,,0.00,VWS V14.01,2013-02-04 09:29:00,
2013-02-04 03:30:00,14.1,11.2,29.93,NW,325,3.0,6.0,88,0.00,,,0.00,VWS V14.01,2013-02-04 09:30:00,
2013-02-04 03:34:00,14.1,10.9,29.93,North,349,0.0,7.0,87,0.00,,,0.00,VWS V14.01,2013-02-04 09:34:00,
2013-02-04 03:35:00,14.1,10.9,29.93,North,349,0.0,7.0,87,0.00,,,0.00,VWS V14.01,2013-02-04 09:35:00,
2013-02-04 03:39:00,14.1,10.9,29.93,NNW,333,2.0,6.0,87,0.00,,,0.00,VWS V14.01,2013-02-04 09:39:00,
2013-02-04 03:40:00,14.1,10.9,29.93,NNW,333,2.0,6.0,87,0.00,,,0.00,VWS V14.01,2013-02-04 09:40:00,
2013-02-04 03:44:00,14.1,10.9,29.93,NNW,338,5.0,7.0,87,0.00,,,0.00,VWS V14.01,2013-02-04 09:44:00,
2013-02-04 03:45:00,14.1,10.9,29.93,NNW,338,5.0,7.0,87,0.00,,,0.00,VWS V14.01,2013-02-04 09:45:00,
2013-02-04 03:49:00,14.0,10.9,29.93,NNW,330,0.0,7.0,87,0.00,,,0.00,VWS V14.01,2013-02-04 09:49:00,
2013-02-04 03:50:00,13.6,10.7,29.94,NNW,345,0.0,7.0,88,0.00,,FEW250,0.00,VWS V14.01,2013-02-04 09:50:00,
2013-02-04 03:54:00,13.9,10.8,29.93,WNW,299,6.0,7.0,87,0.00,,,0.00,VWS V14.01,2013-02-04 09:54:00,
2013-02-04 03:55:00,13.6,10.7,29.94,NW,312,0.0,6.0,88,0.00,,FEW070,0.00,VWS V14.01,2013-02-04 09:55:00,
2013-02-04 03:59:00,13.9,10.8,29.94,NNW,345,6.0,6.0,87,0.00,,,0.00,VWS V14.01,2013-02-04 09:59:00,
2013-02-04 04:00:00,13.9,10.8,29.94,NNW,345,6.0,6.0,87,0.00,,,0.00,VWS V14.01,2013-02-04 10:00:00,
2013-02-04 04:04:00,13.9,10.8,29.93,NNW,341,1.0,6.0,87,0.00,,,0.00,VWS V14.01,2013-02-04 10:04:00,
2013-02-04 04:05:00,13.9,10.8,29.93,NNW,341,1.0,6.0,87,0.00,,,0.00,VWS V14.01,2013-02-04 10:05:00,
2013-02-04 04:10:00,13.9,10.8,29.93,NW,326,2.0,7.0,87,0.00,,,0.00,VWS V14.01,2013-02-04 10:10:00,
2013-02-04 04:15:00,13.9,11.0,29.93,NNW,342,2.0,7.0,88,0.00,,,0.00,VWS V14.01,2013-02-04 10:15:00,
2013-02-04 04:20:00,13.8,10.6,29.94,NW,313,6.0,6.0,87,0.00,,,0.00,VWS V14.01,2013-02-04 10:20:00,
2013-02-04 04:25:00,13.9,11.0,29.94,NNW,328,1.0,6.0,88,0.00,,,0.00,VWS V14.01,2013-02-04 10:25:00,
2013-02-04 04:30:00,13.8,10.9,29.94,NNW,348,6.0,7.0,88,0.00,,,0.00,VWS V14.01,2013-02-04 10:30:00,
2013-02-04 04:35:00,13.7,10.8,29.94,NW,311,0.0,6.0,88,0.00,,,0.00,VWS V14.01,2013-02-04 10:35:00,
2013-02-04 04:40:00,13.8,10.9,29.94,NW,315,0.0,6.0,88,0.00,,,0.00,VWS V14.01,2013-02-04 10:40:00,
2013-02-04 04:45:00,13.7,10.8,29.94,NW,314,0.0,8.0,88,0.00,,,0.00,VWS V14.01,2013-02-04 10:45:00,
2013-02-04 04:50:00,13.6,10.7,29.94,NNW,342,2.0,7.0,88,0.00,,,0.00,VWS V14.01,2013-02-04 10:50:00,
2013-02-04 04:55:00,13.6,10.7,29.94,NW,315,0.0,6.0,88,0.00,,,0.00,VWS V14.01,2013-02-04 10:55:00,
2013-02-04 05:00:00,13.6,10.7,29.94,NW,325,5.0,8.0,88,0.00,,,0.00,VWS V14.01,2013-02-04 11:00:00,
2013-02-04 05:05:00,13.5,10.6,29.94,NW,320,1.0,7.0,88,0.00,,,0.00,VWS V14.01,2013-02-04 11:05:00,
2013-02-04 05:10:00,13.5,10.6,29.94,NW,316,1.0,8.0,88,0.00,,,0.00,VWS V14.01,2013-02-04 11:10:00,
2013-02-04 05:11:00,13.5,10.6,29.94,NW,316,2.0,8.0,88,0.00,,,0.00,VWS V14.01,2013-02-04 11:11:00,
2013-02-04 05:15:00,13.4,10.5,29.94,NW,313,1.0,9.0,88,0.00,,,0.00,VWS V14.01,2013-02-04 11:15:00,
2013-02-04 05:16:00,13.4,10.5,29.94,NW,319,6.0,6.0,88,0.00,,,0.00,VWS V14.01,2013-02-04 11:16:00,
2013-02-04 05:20:00,13.4,10.5,29.95,NNW,328,8.0,8.0,88,0.00,,,0.00,VWS V14.01,2013-02-04 11:20:00,
2013-02-04 05:21:00,13.4,10.5,29.95,NNW,344,6.0,8.0,88,0.00,,,0.00,VWS V14.01,2013-02-04 11:21:00,
2013-02-04 05:25:00,13.4,10.8,29.94,North,349,2.0,7.0,89,0.00,,,0.00,VWS V14.01,2013-02-04 11:25:00,
2013-02-04 05:26:00,13.4,10.8,29.94,North,349,2.0,8.0,89,0.00,,,0.00,VWS V14.01,2013-02-04 11:26:00,
2013-02-04 05:30:00,13.4,10.5,29.94,NNW,342,4.0,8.0,88,0.00,,,0.00,VWS V14.01,2013-02-04 11:30:00,
2013-02-04 05:31:00,13.4,10.5,29.94,North,355,2.0,6.0,88,0.00,,,0.00,VWS V14.01,2013-02-04 11:31:00,
2013-02-04 05:35:00,13.4,10.8,29.94,NW,310,1.0,6.0,89,0.00,,,0.00,VWS V14.01,2013-02-04 11:35:00,
2013-02-04 05:36:00,13.4,10.5,29.94,NNW,327,2.0,8.0,88,0.00,,,0.00,VWS V14.01,2013-02-04 11:36:00,
2013-02-04 05:40:00,13.3,10.4,29.94,NW,310,2.0,8.0,88,0.00,,,0.00,VWS V14.01,2013-02-04 11:40:00,
2013-02-04 05:41:00,13.4,10.8,29.94,NNW,327,1.0,7.0,89,0.00,,,0.00,VWS V14.01,2013-02-04 11:41:00,
2013-02-04 05:45:00,13.5,10.9,29.94,NNW,329,2.0,6.0,89,0.00,,,0.00,VWS V14.01,2013-02-04 11:45:00,
2013-02-04 05:46:00,13.5,10.9,29.94,NNW,327,6.0,8.0,89,0.00,,,0.00,VWS V14.01,2013-02-04 11:46:00,
2013-02-04 05:50:00,13.4,10.5,29.94,NW,311,0.0,8.0,88,0.00,,,0.00,VWS V14.01,2013-02-04 11:50:00,
2013-02-04 05:51:00,13.4,10.5,29.94,NNW,330,7.0,7.0,88,0.00,,,0.00,VWS V14.01,2013-02-04 11:51:00,
2013-02-04 05:55:00,13.4,10.8,29.94,NNW,333,2.0,8.0,89,0.00,,,0.00,VWS V14.01,2013-02-04 11:55:00,
2013-02-04 05:56:00,13.4,10.8,29.94,NNW,338,4.0,6.0,89,0.00,,,0.00,VWS V14.01,2013-02-04 11:56:00,
2013-02-04 06:00:00,13.5,10.9,29.94,NW,304,0.0,6.0,89,0.00,,,0.00,VWS V14.01,2013-02-04 12:00:00,
2013-02-04 06:01:00,13.5,10.9,29.94,NNW,328,4.0,7.0,89,0.00,,,0.00,VWS V14.01,2013-02-04 12:01:00,
2013-02-04 06:05:00,13.5,10.9,29.94,NW,319,1.0,7.0,89,0.00,,,0.00,VWS V14.01,2013-02-04 12:05:00,
2013-02-04 06:06:00,13.5,10.9,29.94,NNW,330,1.0,7.0,89,0.00,,,0.00,VWS V14.01,2013-02-04 12:06:00,
2013-02-04 06:10:00,13.5,10.9,29.94,NNW,341,4.0,7.0,89,0.00,,,0.00,VWS V14.01,2013-02-04 12:10:00,
2013-02-04 06:12:00,13.5,10.9,29.95,NNW,340,7.0,7.0,89,0.00,,,0.00,VWS V14.01,2013-02-04 12:12:00,
2013-02-04 06:15:00,13.4,10.5,29.95,NW,319,6.0,9.0,88,0.00,,,0.00,VWS V14.01,2013-02-04 12:15:00,
2013-02-04 06:17:00,13.4,10.5,29.94,NW,321,8.0,9.0,88,0.00,,,0.00,VWS V14.01,2013-02-04 12:17:00,
2013-02-04 06:20:00,13.4,10.5,29.94,NNW,334,0.0,9.0,88,0.00,,,0.00,VWS V14.01,2013-02-04 12:20:00,
2013-02-04 06:22:00,13.3,10.4,29.94,North,355,6.0,11.0,88,0.00,,,0.00,VWS V14.01,2013-02-04 12:22:00,
2013-02-04 06:25:00,13.3,10.7,29.94,NW,322,0.0,11.0,89,0.00,,,0.00,VWS V14.01,2013-02-04 12:25:00,
2013-02-04 06:27:00,13.4,10.8,29.94,NNW,348,0.0,8.0,89,0.00,,,0.00,VWS V14.01,2013-02-04 12:27:00,
2013-02-04 06:30:00,13.5,10.9,29.95,North,355,3.0,7.0,89,0.00,,,0.00,VWS V14.01,2013-02-04 12:30:00,
2013-02-04 06:32:00,13.5,10.9,29.95,NNW,328,1.0,7.0,89,0.00,,,0.00,VWS V14.01,2013-02-04 12:32:00,
2013-02-04 06:35:00,13.5,10.9,29.95,NW,325,5.0,5.0,89,0.00,,,0.00,VWS V14.01,2013-02-04 12:35:00,
2013-02-04 06:37:00,13.6,11.0,29.95,NW,315,0.0,7.0,89,0.00,,,0.00,VWS V14.01,2013-02-04 12:37:00,
2013-02-04 06:40:00,13.5,10.9,29.95,NW,319,3.0,9.0,89,0.00,,,0.00,VWS V14.01,2013-02-04 12:40:00,
2013-02-04 06:42:00,13.5,10.9,29.94,NNW,340,3.0,9.0,89,0.00,,,0.00,VWS V14.01,2013-02-04 12:42:00,
2013-02-04 06:45:00,13.5,10.9,29.94,WNW,298,4.0,8.0,89,0.00,,,0.00,VWS V14.01,2013-02-04 12:45:00,
2013-02-04 06:47:00,13.5,10.9,29.95,North,355,0.0,8.0,89,0.00,,,0.00,VWS V14.01,2013-02-04 12:47:00,
2013-02-04 06:50:00,13.5,10.9,29.95,NW,325,7.0,8.0,89,0.00,,,0.00,VWS V14.01,2013-02-04 12:50:00,
2013-02-04 06:52:00,13.5,10.9,29.95,NW,319,6.0,8.0,89,0.00,,,0.00,VWS V14.01,2013-02-04 12:52:00,
2013-02-04 06:55:00,13.5,10.9,29.95,North,355,1.0,9.0,89,0.00,,,0.00,VWS V14.01,2013-02-04 12:55:00,
2013-02-04 06:57:00,13.6,11.0,29.94,NW,324,1.0,9.0,89,0.00,,,0.00,VWS V14.01,2013-02-04 12:57:00,
2013-02-04 07:00:00,13.6,11.0,29.95,NNW,327,5.0,8.0,89,0.00,,,0.00,VWS V14.01,2013-02-04 13:00:00,
2013-02-04 07:02:00,13.6,11.0,29.94,North,355,6.0,8.0,89,0.00,,,0.00,VWS V14.01,2013-02-04 13:02:00,
2013-02-04 07:05:00,13.6,11.0,29.94,NW,312,6.0,8.0,89,0.00,,,0.00,VWS V14.01,2013-02-04 13:05:00,
2013-02-04 07:07:00,13.6,11.0,29.94,NW,312,1.0,9.0,89,0.00,,,0.00,VWS V14.01,2013-02-04 13:07:00,
2013-02-04 07:10:00,13.6,11.0,29.94,NW,322,7.0,9.0,89,0.00,,,0.00,VWS V14.01,2013-02-04 13:10:00,
2013-02-04 07:13:00,13.6,11.0,29.94,NNW,330,1.0,8.0,89,0.00,,,0.00,VWS V14.01,2013-02-04 13:13:00,
2013-02-04 07:15:00,13.6,11.0,29.95,NNW,330,1.0,9.0,89,0.00,,,0.00,VWS V14.01,2013-02-04 13:15:00,
2013-02-04 07:18:00,13.7,11.1,29.95,NW,306,4.0,10.0,89,0.00,,,0.00,VWS V14.01,2013-02-04 13:18:00,
2013-02-04 07:20:00,13.7,11.1,29.94,NW,310,7.0,10.0,89,0.00,,,0.00,VWS V14.01,2013-02-04 13:20:00,
2013-02-04 07:23:00,13.6,11.0,29.94,North,355,2.0,8.0,89,0.00,,,0.00,VWS V14.01,2013-02-04 13:23:00,
2013-02-04 07:25:00,13.6,11.0,29.94,NNW,338,0.0,8.0,89,0.00,,,0.00,VWS V14.01,2013-02-04 13:25:00,
2013-02-04 07:28:00,13.6,11.0,29.94,NW,325,2.0,7.0,89,0.00,,,0.00,VWS V14.01,2013-02-04 13:28:00,
2013-02-04 07:30:00,13.5,10.9,29.94,NNW,347,5.0,8.0,89,0.00,,,0.00,VWS V14.01,2013-02-04 13:30:00,
2013-02-04 07:33:00,13.4,10.8,29.94,NNW,345,1.0,8.0,89,0.00,,,0.00,VWS V14.01,2013-02-04 13:33:00,
2013-02-04 07:35:00,13.4,10.8,29.94,NW,317,6.0,8.0,89,0.00,,,0.00,VWS V14.01,2013-02-04 13:35:00,
2013-02-04 07:38:00,13.4,10.8,29.94,North,355,7.0,10.0,89,0.00,,,0.00,VWS V14.01,2013-02-04 13:38:00,
2013-02-04 07:40:00,13.4,10.8,29.94,NW,324,7.0,11.0,89,0.00,,,0.00,VWS V14.01,2013-02-04 13:40:00,
2013-02-04 07:43:00,13.3,10.7,29.94,NW,325,2.0,11.0,89,0.00,,,0.00,VWS V14.01,2013-02-04 13:43:00,
2013-02-04 07:45:00,13.4,10.8,29.94,NNW,344,6.0,11.0,89,0.00,,,0.00,VWS V14.01,2013-02-04 13:45:00,
2013-02-04 07:48:00,13.4,10.8,29.94,NNW,339,6.0,9.0,89,0.00,,,0.00,VWS V14.01,2013-02-04 13:48:00,
2013-02-04 07:50:00,13.4,10.8,29.94,NNE,17,5.0,8.0,89,0.00,,,0.00,VWS V14.01,2013-02-04 13:50:00,
2013-02-04 07:53:00,13.4,10.8,29.94,NNW,332,5.0,9.0,89,0.00,,,0.00,VWS V14.01,2013-02-04 13:53:00,
2013-02-04 07:55:00,13.4,10.8,29.94,North,9,5.0,10.0,89,0.00,,,0.00,VWS V14.01,2013-02-04 13:55:00,
2013-02-04 07:58:00,13.5,10.9,29.94,NW,321,7.0,8.0,89,0.00,,,0.00,VWS V14.01,2013-02-04 13:58:00,
2013-02-04 08:00:00,13.5,10.9,29.94,NNW,331,7.0,8.0,89,0.00,,,0.00,VWS V14.01,2013-02-04 14:00:00,
2013-02-04 08:03:00,13.5,10.6,29.94,NNW,328,4.0,10.0,88,0.00,,,0.00,VWS V14.01,2013-02-04 14:03:00,
2013-02-04 08:05:00,13.6,11.0,29.94,NW,319,6.0,10.0,89,0.00,,,0.00,VWS V14.01,2013-02-04 14:05:00,
2013-02-04 08:08:00,13.6,10.7,29.94,NNE,16,2.0,8.0,88,0.00,,,0.00,VWS V14.01,2013-02-04 14:08:00,
2013-02-04 08:10:00,13.7,10.8,29.94,NNW,346,5.0,8.0,88,0.00,,,0.00,VWS V14.01,2013-02-04 14:10:00,
2013-02-04 08:13:00,13.7,10.8,29.94,NNW,334,6.0,10.0,88,0.00,,,0.00,VWS V14.01,2013-02-04 14:13:00,
2013-02-04 08:15:00,13.7,10.8,29.94,North,5,4.0,10.0,88,0.00,,,0.00,VWS V14.01,2013-02-04 14:15:00,
2013-02-04 08:18:00,13.7,10.8,29.94,NNE,21,5.0,12.0,88,0.00,,,0.00,VWS V14.01,2013-02-04 14:18:00,
2013-02-04 08:20:00,13.7,10.8,29.94,NNW,340,7.0,11.0,88,0.00,,,0.00,VWS V14.01,2013-02-04 14:20:00,
2013-02-04 08:23:00,13.7,10.8,29.94,NNW,347,2.0,11.0,88,0.00,,,0.00,VWS V14.01,2013-02-04 14:23:00,
2013-02-04 08:25:00,13.8,10.9,29.94,NNW,343,5.0,11.0,88,0.00,,,0.00,VWS V14.01,2013-02-04 14:25:00,
2013-02-04 08:29:00,13.8,10.9,29.94,NNW,344,7.0,10.0,88,0.00,,,0.00,VWS V14.01,2013-02-04 14:29:00,
2013-02-04 08:30:00,14.1,10.9,29.94,North,9,6.0,10.0,87,0.00,,FEW070,0.00,VWS V14.01,2013-02-04 14:30:00,
2013-02-04 08:34:00,13.9,11.0,29.94,NNW,330,2.0,9.0,88,0.00,,,0.00,VWS V14.01,2013-02-04 14:34:00,
2013-02-04 08:35:00,14.1,10.9,29.94,NNW,341,1.0,13.0,87,0.00,,FEW070,0.00,VWS V14.01,2013-02-04 14:35:00,
2013-02-04 08:39:00,13.9,11.0,29.94,NW,306,1.0,11.0,88,0.00,,,0.00,VWS V14.01,2013-02-04 14:39:00,
2013-02-04 08:40:00,14.0,11.1,29.94,NNW,336,0.0,11.0,88,0.00,,,0.00,VWS V14.01,2013-02-04 14:40:00,
2013-02-04 08:44:00,14.0,11.1,29.94,North,349,1.0,11.0,88,0.00,,,0.00,VWS V14.01,2013-02-04 14:44:00,
2013-02-04 08:45:00,14.0,11.1,29.94,North,355,7.0,11.0,88,0.00,,,0.00,VWS V14.01,2013-02-04 14:45:00,
2013-02-04 08:49:00,14.1,11.2,29.94,North,5,7.0,10.0,88,0.00,,,0.00,VWS V14.01,2013-02-04 14:49:00,
2013-02-04 08:50:00,14.1,11.2,29.94,NNW,345,6.0,10.0,88,0.00,,,0.00,VWS V14.01,2013-02-04 14:50:00,
2013-02-04 08:54:00,14.1,10.9,29.94,NNW,333,6.0,10.0,87,0.00,,,0.00,VWS V14.01,2013-02-04 14:54:00,
2013-02-04 08:55:00,14.1,10.9,29.94,North,360,5.0,10.0,87,0.00,,,0.00,VWS V14.01,2013-02-04 14:55:00,
2013-02-04 08:59:00,14.0,10.9,29.94,NNE,13,2.0,11.0,87,0.00,,,0.00,VWS V14.01,2013-02-04 14:59:00,
2013-02-04 09:00:00,14.0,10.9,29.94,NNW,333,6.0,11.0,87,0.00,,,0.00,VWS V14.01,2013-02-04 15:00:00,
2013-02-04 09:04:00,14.0,10.9,29.94,NW,326,5.0,12.0,87,0.00,,,0.00,VWS V14.01,2013-02-04 15:04:00,
2013-02-04 09:05:00,13.9,10.8,29.94,NW,325,0.0,12.0,87,0.00,,,0.00,VWS V14.01,2013-02-04 15:05:00,
2013-02-04 09:09:00,14.0,10.9,29.94,North,349,9.0,11.0,87,0.00,,,0.00,VWS V14.01,2013-02-04 15:09:00,
2013-02-04 09:10:00,14.0,10.9,29.94,NNW,348,1.0,11.0,87,0.00,,,0.00,VWS V14.01,2013-02-04 15:10:00,
2013-02-04 09:14:00,14.0,10.9,29.93,NW,319,7.0,11.0,87,0.00,,,0.00,VWS V14.01,2013-02-04 15:14:00,
2013-02-04 09:15:00,14.1,10.9,29.93,NW,325,6.0,11.0,87,0.00,,,0.00,VWS V14.01,2013-02-04 15:15:00,
2013-02-04 09:19:00,14.2,11.1,29.94,NW,324,4.0,10.0,87,0.00,,,0.00,VWS V14.01,2013-02-04 15:19:00,
2013-02-04 09:20:00,14.2,11.1,29.94,NW,326,3.0,10.0,87,0.00,,,0.00,VWS V14.01,2013-02-04 15:20:00,
2013-02-04 09:24:00,14.2,11.1,29.94,NNW,333,6.0,10.0,87,0.00,,,0.00,VWS V14.01,2013-02-04 15:24:00,
2013-02-04 09:25:00,14.2,11.1,29.94,NNW,331,9.0,10.0,87,0.00,,,0.00,VWS V14.01,2013-02-04 15:25:00,
2013-02-04 09:29:00,14.1,10.9,29.94,North,9,6.0,10.0,87,0.00,,,0.00,VWS V14.01,2013-02-04 15:29:00,
2013-02-04 09:30:00,14.1,10.9,29.94,North,9,6.0,10.0,87,0.00,,,0.00,VWS V14.01,2013-02-04 15:30:00,
2013-02-04 09:34:00,14.1,10.9,29.94,NNW,341,1.0,13.0,87,0.00,,,0.00,VWS V14.01,2013-02-04 15:34:00,
2013-02-04 09:35:00,14.1,10.9,29.94,NNW,341,1.0,13.0,87,0.00,,,0.00,VWS V14.01,2013-02-04 15:35:00,
2013-02-04 09:39:00,14.1,10.7,29.94,North,350,5.0,11.0,86,0.00,,,0.00,VWS V14.01,2013-02-04 15:39:00,
2013-02-04 09:40:00,15.4,10.9,29.94,NNW,346,8.0,12.0,82,0.00,,FEW070,0.00,VWS V14.01,2013-02-04 15:40:00,
2013-02-04 09:44:00,14.2,10.8,29.93,NNW,346,6.0,10.0,86,0.00,,,0.00,VWS V14.01,2013-02-04 15:44:00,
2013-02-04 09:45:00,14.2,10.8,29.93,NNW,346,6.0,10.0,86,0.00,,,0.00,VWS V14.01,2013-02-04 15:45:00,
2013-02-04 09:49:00,14.4,11.2,29.93,North,351,6.0,11.0,87,0.00,,,0.00,VWS V14.01,2013-02-04 15:49:00,
2013-02-04 09:50:00,14.4,11.2,29.93,North,351,6.0,11.0,87,0.00,,,0.00,VWS V14.01,2013-02-04 15:50:00,
2013-02-04 09:54:00,14.4,11.0,29.94,NNW,329,5.0,13.0,86,0.00,,,0.00,VWS V14.01,2013-02-04 15:54:00,
2013-02-04 09:55:00,14.4,11.0,29.94,NNW,329,5.0,13.0,86,0.00,,,0.00,VWS V14.01,2013-02-04 15:55:00,
2013-02-04 09:59:00,14.5,11.1,29.93,North,9,6.0,13.0,86,0.00,,,0.00,VWS V14.01,2013-02-04 15:59:00,
2013-02-04 10:00:00,14.5,11.1,29.93,North,9,6.0,13.0,86,0.00,,,0.00,VWS V14.01,2013-02-04 16:00:00,
2013-02-04 10:05:00,14.6,11.2,29.93,NNW,332,6.0,12.0,86,0.00,,,0.00,VWS V14.01,2013-02-04 16:05:00,
2013-02-04 10:10:00,14.7,11.0,29.93,North,350,6.0,11.0,85,0.00,,,0.00,VWS V14.01,2013-02-04 16:10:00,
2013-02-04 10:15:00,15.0,11.3,29.93,North,355,2.0,9.0,85,0.00,,,0.00,VWS V14.01,2013-02-04 16:15:00,
2013-02-04 10:20:00,15.2,11.5,29.94,NNW,343,9.0,11.0,85,0.00,,,0.00,VWS V14.01,2013-02-04 16:20:00,
2013-02-04 10:25:00,15.2,11.2,29.94,NNW,332,11.0,12.0,84,0.00,,,0.00,VWS V14.01,2013-02-04 16:25:00,
2013-02-04 10:30:00,15.2,11.0,29.94,North,9,5.0,13.0,83,0.00,,,0.00,VWS V14.01,2013-02-04 16:30:00,
2013-02-04 10:35:00,15.4,11.2,29.94,NNW,343,8.0,11.0,83,0.00,,,0.00,VWS V14.01,2013-02-04 16:35:00,
2013-02-04 10:40:00,15.4,10.9,29.94,NNW,340,7.0,12.0,82,0.00,,,0.00,VWS V14.01,2013-02-04 16:40:00,
2013-02-04 10:45:00,15.4,10.9,29.94,NNW,329,7.0,10.0,82,0.00,,,0.00,VWS V14.01,2013-02-04 16:45:00,
2013-02-04 10:50:00,15.5,10.7,29.94,NNE,14,7.0,11.0,81,0.00,,,0.00,VWS V14.01,2013-02-04 16:50:00,
2013-02-04 10:55:00,15.5,10.7,29.94,NNW,334,4.0,12.0,81,0.00,,,0.00,VWS V14.01,2013-02-04 16:55:00,
2013-02-04 11:00:00,15.6,10.5,29.94,NNW,334,5.0,12.0,80,0.00,,,0.00,VWS V14.01,2013-02-04 17:00:00,
2013-02-04 11:05:00,15.7,10.9,29.93,North,355,7.0,9.0,81,0.00,,,0.00,VWS V14.01,2013-02-04 17:05:00,
2013-02-04 11:06:00,15.7,10.6,29.93,NNW,338,2.0,9.0,80,0.00,,,0.00,VWS V14.01,2013-02-04 17:06:00,
2013-02-04 11:10:00,15.7,10.6,29.93,North,355,7.0,11.0,80,0.00,,,0.00,VWS V14.01,2013-02-04 17:10:00,
2013-02-04 11:11:00,15.7,10.6,29.93,NNW,339,0.0,11.0,80,0.00,,,0.00,VWS V14.01,2013-02-04 17:11:00,
2013-02-04 11:15:00,15.7,10.6,29.94,North,5,0.0,10.0,80,0.00,,,0.00,VWS V14.01,2013-02-04 17:15:00,
2013-02-04 11:16:00,15.7,10.6,29.94,North,5,4.0,10.0,80,0.00,,,0.00,VWS V14.01,2013-02-04 17:16:00,
2013-02-04 11:20:00,15.8,10.7,29.94,NNW,333,6.0,11.0,80,0.00,,,0.00,VWS V14.01,2013-02-04 17:20:00,
2013-02-04 11:21:00,15.7,10.6,29.94,North,355,7.0,11.0,80,0.00,,,0.00,VWS V14.01,2013-02-04 17:21:00,
2013-02-04 11:25:00,15.6,10.5,29.93,NNW,343,5.0,14.0,80,0.00,,,0.00,VWS V14.01,2013-02-04 17:25:00,
2013-02-04 11:26:00,15.6,10.5,29.94,NNW,346,9.0,11.0,80,0.00,,,0.00,VWS V14.01,2013-02-04 17:26:00,
2013-02-04 11:30:00,15.7,10.6,29.93,NNW,348,3.0,11.0,80,0.00,,,0.00,VWS V14.01,2013-02-04 17:30:00,
2013-02-04 11:31:00,15.8,11.0,29.93,NW,325,2.0,11.0,81,0.00,,,0.00,VWS V14.01,2013-02-04 17:31:00,
2013-02-04 11:35:00,15.9,11.1,29.93,NNW,329,9.0,11.0,81,0.00,,,0.00,VWS V14.01,2013-02-04 17:35:00,
2013-02-04 11:36:00,15.9,10.8,29.93,NW,306,7.0,13.0,80,0.00,,,0.00,VWS V14.01,2013-02-04 17:36:00,
2013-02-04 11:40:00,16.0,11.2,29.93,NNW,346,8.0,13.0,81,0.00,,,0.00,VWS V14.01,2013-02-04 17:40:00,
2013-02-04 11:41:00,16.0,10.9,29.93,NNW,331,2.0,11.0,80,0.00,,,0.00,VWS V14.01,2013-02-04 17:41:00,
2013-02-04 11:45:00,16.2,11.4,29.93,NNW,348,4.0,12.0,81,0.00,,,0.00,VWS V14.01,2013-02-04 17:45:00,
2013-02-04 11:46:00,16.2,11.4,29.93,NNW,348,6.0,12.0,81,0.00,,,0.00,VWS V14.01,2013-02-04 17:46:00,
2013-02-04 11:50:00,16.4,11.6,29.93,NW,322,0.0,9.0,81,0.00,,,0.00,VWS V14.01,2013-02-04 17:50:00,
2013-02-04 11:51:00,16.5,11.7,29.93,NNW,337,3.0,7.0,81,0.00,,,0.00,VWS V14.01,2013-02-04 17:51:00,
2013-02-04 11:55:00,16.7,11.9,29.93,NNW,335,1.0,10.0,81,0.00,,,0.00,VWS V14.01,2013-02-04 17:55:00,
2013-02-04 11:56:00,16.8,12.0,29.93,North,349,3.0,10.0,81,0.00,,,0.00,VWS V14.01,2013-02-04 17:56:00,
2013-02-04 12:00:00,16.9,12.1,29.93,North,351,6.0,9.0,81,0.00,,,0.00,VWS V14.01,2013-02-04 18:00:00,
2013-02-04 12:01:00,16.8,12.0,29.93,NW,325,7.0,9.0,81,0.00,,,0.00,VWS V14.01,2013-02-04 18:01:00,
2013-02-04 12:05:00,16.7,11.9,29.93,North,351,5.0,11.0,81,0.00,,,0.00,VWS V14.01,2013-02-04 18:05:00,
2013-02-04 12:07:00,16.7,11.9,29.93,WNW,301,11.0,11.0,81,0.00,,,0.00,VWS V14.01,2013-02-04 18:07:00,
2013-02-04 12:10:00,16.7,12.2,29.93,NNW,347,2.0,11.0,82,0.00,,,0.00,VWS V14.01,2013-02-04 18:10:00,
2013-02-04 12:12:00,16.7,12.2,29.93,North,349,4.0,13.0,82,0.00,,,0.00,VWS V14.01,2013-02-04 18:12:00,
2013-02-04 12:15:00,16.6,12.1,29.93,NNW,329,10.0,15.0,82,0.00,,,0.00,VWS V14.01,2013-02-04 18:15:00,
2013-02-04 12:17:00,16.6,12.1,29.93,NNW,343,8.0,15.0,82,0.00,,,0.00,VWS V14.01,2013-02-04 18:17:00,
2013-02-04 12:20:00,16.7,12.2,29.93,NNW,333,6.0,11.0,82,0.00,,,0.00,VWS V14.01,2013-02-04 18:20:00,
2013-02-04 12:22:00,16.9,12.6,29.93,NNW,333,6.0,10.0,83,0.00,,,0.00,VWS V14.01,2013-02-04 18:22:00,
2013-02-04 12:25:00,17.0,12.7,29.93,NW,308,11.0,12.0,83,0.00,,,0.00,VWS V14.01,2013-02-04 18:25:00,
2013-02-04 12:27:00,17.0,12.7,29.93,NW,321,7.0,12.0,83,0.00,,,0.00,VWS V14.01,2013-02-04 18:27:00,
2013-02-04 12:30:00,16.9,12.6,29.93,North,5,10.0,13.0,83,0.00,,,0.00,VWS V14.01,2013-02-04 18:30:00,
2013-02-04 12:32:00,16.8,12.5,29.93,NNW,347,3.0,13.0,83,0.00,,,0.00,VWS V14.01,2013-02-04 18:32:00,
2013-02-04 12:35:00,17.0,12.7,29.92,NW,325,8.0,14.0,83,0.00,,,0.00,VWS V14.01,2013-02-04 18:35:00,
2013-02-04 12:37:00,16.9,12.6,29.93,North,355,7.0,14.0,83,0.00,,,0.00,VWS V14.01,2013-02-04 18:37:00,
2013-02-04 12:40:00,16.8,12.5,29.93,NNW,331,9.0,12.0,83,0.00,,,0.00,VWS V14.01,2013-02-04 18:40:00,
2013-02-04 12:42:00,17.0,12.7,29.93,North,355,3.0,12.0,83,0.00,,,0.00,VWS V14.01,2013-02-04 18:42:00,
2013-02-04 12:45:00,17.1,13.1,29.93,NW,322,8.0,10.0,84,0.00,,,0.00,VWS V14.01,2013-02-04 18:45:00,
2013-02-04 12:47:00,17.1,12.8,29.93,North,355,2.0,12.0,83,0.00,,,0.00,VWS V14.01,2013-02-04 18:47:00,
2013-02-04 12:50:00,17.1,13.1,29.93,NNW,340,6.0,12.0,84,0.00,,,0.00,VWS V14.01,2013-02-04 18:50:00,
2013-02-04 12:52:00,17.2,12.9,29.93,NW,312,8.0,10.0,83,0.00,,,0.00,VWS V14.01,2013-02-04 18:52:00,
2013-02-04 12:55:00,17.3,13.3,29.93,NW,320,1.0,10.0,84,0.00,,,0.00,VWS V14.01,2013-02-04 18:55:00,
2013-02-04 12:58:00,17.5,13.5,29.93,NW,313,8.0,10.0,84,0.00,,,0.00,VWS V14.01,2013-02-04 18:58:00,
2013-02-04 13:00:00,17.5,13.5,29.93,North,5,6.0,12.0,84,0.00,,,0.00,VWS V14.01,2013-02-04 19:00:00,
2013-02-04 13:03:00,17.6,13.6,29.92,NNW,337,3.0,12.0,84,0.00,,,0.00,VWS V14.01,2013-02-04 19:03:00,
2013-02-04 13:05:00,17.6,13.6,29.92,NW,317,8.0,10.0,84,0.00,,,0.00,VWS V14.01,2013-02-04 19:05:00,
2013-02-04 13:08:00,17.5,13.2,29.93,NNW,330,3.0,12.0,83,0.00,,,0.00,VWS V14.01,2013-02-04 19:08:00,
2013-02-04 13:10:00,17.5,13.2,29.93,NW,309,7.0,12.0,83,0.00,,,0.00,VWS V14.01,2013-02-04 19:10:00,
2013-02-04 13:13:00,17.3,13.0,29.92,NNW,338,6.0,12.0,83,0.00,,,0.00,VWS V14.01,2013-02-04 19:13:00,
2013-02-04 13:15:00,17.3,12.8,29.92,NNW,342,3.0,12.0,82,0.00,,,0.00,VWS V14.01,2013-02-04 19:15:00,
2013-02-04 13:18:00,17.3,12.8,29.92,NW,317,8.0,12.0,82,0.00,,,0.00,VWS V14.01,2013-02-04 19:18:00,
2013-02-04 13:20:00,17.3,12.8,29.92,NW,313,8.0,12.0,82,0.00,,,0.00,VWS V14.01,2013-02-04 19:20:00,
2013-02-04 13:23:00,17.4,12.9,29.92,WNW,292,5.0,12.0,82,0.00,,,0.00,VWS V14.01,2013-02-04 19:23:00,
2013-02-04 13:25:00,17.5,12.9,29.92,NW,318,3.0,12.0,82,0.00,,,0.00,VWS V14.01,2013-02-04 19:25:00,
2013-02-04 13:28:00,17.7,12.9,29.92,NW,311,10.0,10.0,81,0.00,,,0.00,VWS V14.01,2013-02-04 19:28:00,
2013-02-04 13:30:00,17.7,12.9,29.92,NNW,329,2.0,10.0,81,0.00,,,0.00,VWS V14.01,2013-02-04 19:30:00,
2013-02-04 13:33:00,17.8,13.0,29.93,North,5,0.0,11.0,81,0.00,,,0.00,VWS V14.01,2013-02-04 19:33:00,
2013-02-04 13:35:00,17.9,13.1,29.93,NNW,327,6.0,11.0,81,0.00,,,0.00,VWS V14.01,2013-02-04 19:35:00,
2013-02-04 13:38:00,17.9,12.8,29.93,NNW,329,2.0,12.0,80,0.00,,,0.00,VWS V14.01,2013-02-04 19:38:00,
2013-02-04 13:40:00,18.0,12.9,29.93,NNW,327,5.0,12.0,80,0.00,,,0.00,VWS V14.01,2013-02-04 19:40:00,
2013-02-04 13:43:00,18.0,12.9,29.93,NW,316,5.0,12.0,80,0.00,,,0.00,VWS V14.01,2013-02-04 19:43:00,
2013-02-04 13:45:00,18.0,12.9,29.93,NW,313,8.0,12.0,80,0.00,,,0.00,VWS V14.01,2013-02-04 19:45:00,
2013-02-04 13:48:00,18.1,12.7,29.93,NNW,336,1.0,11.0,79,0.00,,,0.00,VWS V14.01,2013-02-04 19:48:00,
2013-02-04 13:50:00,18.1,12.7,29.93,NNE,19,2.0,11.0,79,0.00,,,0.00,VWS V14.01,2013-02-04 19:50:00,
2013-02-04 13:53:00,18.2,12.8,29.93,NW,313,9.0,10.0,79,0.00,,,0.00,VWS V14.01,2013-02-04 19:53:00,
2013-02-04 13:55:00,18.2,12.5,29.93,NNW,329,5.0,10.0,78,0.00,,,0.00,VWS V14.01,2013-02-04 19:55:00,
2013-02-04 13:58:00,18.2,12.5,29.93,NW,317,3.0,12.0,78,0.00,,,0.00,VWS V14.01,2013-02-04 19:58:00,
2013-02-04 14:00:00,18.2,12.5,29.93,North,355,0.0,12.0,78,0.00,,,0.00,VWS V14.01,2013-02-04 20:00:00,
2013-02-04 14:04:00,18.2,12.5,29.93,NNW,331,8.0,10.0,78,0.00,,,0.00,VWS V14.01,2013-02-04 20:04:00,
2013-02-04 14:05:00,18.2,12.5,29.93,NW,309,6.0,10.0,78,0.00,,,0.00,VWS V14.01,2013-02-04 20:05:00,
2013-02-04 14:09:00,18.1,12.1,29.93,NW,317,6.0,11.0,77,0.00,,,0.00,VWS V14.01,2013-02-04 20:09:00,
2013-02-04 14:10:00,18.1,12.1,29.93,NW,309,10.0,11.0,77,0.00,,,0.00,VWS V14.01,2013-02-04 20:10:00,
2013-02-04 14:14:00,18.1,12.1,29.93,NW,318,10.0,11.0,77,0.00,,,0.00,VWS V14.01,2013-02-04 20:14:00,
2013-02-04 14:15:00,18.1,12.1,29.92,NNW,333,2.0,11.0,77,0.00,,,0.00,VWS V14.01,2013-02-04 20:15:00,
2013-02-04 14:19:00,18.3,12.0,29.92,NW,317,6.0,11.0,76,0.00,,,0.00,VWS V14.01,2013-02-04 20:19:00,
2013-02-04 14:20:00,18.2,11.9,29.92,NNW,342,3.0,11.0,76,0.00,,,0.00,VWS V14.01,2013-02-04 20:20:00,
2013-02-04 14:24:00,18.3,11.7,29.92,NNE,12,7.0,11.0,75,0.00,,,0.00,VWS V14.01,2013-02-04 20:24:00,
2013-02-04 14:25:00,18.4,11.8,29.92,NNW,341,9.0,11.0,75,0.00,,,0.00,VWS V14.01,2013-02-04 20:25:00,
2013-02-04 14:29:00,18.3,11.7,29.92,NW,304,2.0,10.0,75,0.00,,,0.00,VWS V14.01,2013-02-04 20:29:00,
2013-02-04 14:30:00,18.3,11.7,29.91,NNW,331,6.0,10.0,75,0.00,,,0.00,VWS V14.01,2013-02-04 20:30:00,
2013-02-04 14:34:00,18.5,11.9,29.91,ENE,70,7.0,9.0,75,0.00,,,0.00,VWS V14.01,2013-02-04 20:34:00,
2013-02-04 14:35:00,18.5,11.9,29.91,North,5,3.0,9.0,75,0.00,,,0.00,VWS V14.01,2013-02-04 20:35:00,
2013-02-04 14:39:00,18.6,11.7,29.91,NNW,331,2.0,10.0,74,0.00,,,0.00,VWS V14.01,2013-02-04 20:39:00,
2013-02-04 14:40:00,18.6,11.7,29.91,NNW,332,2.0,10.0,74,0.00,,,0.00,VWS V14.01,2013-02-04 20:40:00,
2013-02-04 14:44:00,18.9,12.3,29.91,NNW,346,2.0,6.0,75,0.00,,,0.00,VWS V14.01,2013-02-04 20:44:00,
2013-02-04 14:45:00,18.8,12.2,29.91,NNW,346,1.0,6.0,75,0.00,,,0.00,VWS V14.01,2013-02-04 20:45:00,
2013-02-04 14:49:00,19.0,12.1,29.91,NW,305,2.0,8.0,74,0.00,,,0.00,VWS V14.01,2013-02-04 20:49:00,
2013-02-04 14:50:00,19.0,12.1,29.91,NW,305,2.0,8.0,74,0.00,,,0.00,VWS V14.01,2013-02-04 20:50:00,
2013-02-04 14:54:00,18.9,11.7,29.91,NNW,336,3.0,10.0,73,0.00,,,0.00,VWS V14.01,2013-02-04 20:54:00,
2013-02-04 14:55:00,18.9,11.7,29.91,NNW,336,3.0,10.0,73,0.00,,,0.00,VWS V14.01,2013-02-04 20:55:00,
2013-02-04 14:59:00,18.9,11.7,29.91,NW,316,6.0,10.0,73,0.00,,,0.00,VWS V14.01,2013-02-04 20:59:00,
2013-02-04 15:00:00,18.9,11.7,29.91,NW,316,6.0,10.0,73,0.00,,,0.00,VWS V14.01,2013-02-04 21:00:00,
2013-02-04 15:04:00,18.8,11.6,29.91,NW,323,3.0,9.0,73,0.00,,,0.00,VWS V14.01,2013-02-04 21:04:00,
2013-02-04 15:05:00,18.8,11.6,29.91,NNW,331,4.0,9.0,73,0.00,,,0.00,VWS V14.01,2013-02-04 21:05:00,
2013-02-04 15:10:00,18.8,11.3,29.91,WNW,302,5.0,8.0,72,0.00,,,0.00,VWS V14.01,2013-02-04 21:10:00,
2013-02-04 15:15:00,19.0,11.5,29.91,WNW,302,2.0,6.0,72,0.00,,,0.00,VWS V14.01,2013-02-04 21:15:00,
2013-02-04 15:20:00,19.1,11.6,29.91,NNW,331,3.0,8.0,72,0.00,,,0.00,VWS V14.01,2013-02-04 21:20:00,
2013-02-04 15:25:00,19.1,11.3,29.91,North,355,0.0,6.0,71,0.00,,,0.00,VWS V14.01,2013-02-04 21:25:00,
2013-02-04 15:30:00,19.0,10.5,29.91,North,5,2.0,8.0,69,0.00,,,0.00,VWS V14.01,2013-02-04 21:30:00,
2013-02-04 15:35:00,18.7,9.6,29.91,NW,324,1.0,8.0,67,0.00,,,0.00,VWS V14.01,2013-02-04 21:35:00,
2013-02-04 15:40:00,18.6,9.1,29.91,NNE,14,11.0,11.0,66,0.00,,,0.00,VWS V14.01,2013-02-04 21:40:00,
2013-02-04 15:45:00,18.5,8.7,29.91,North,5,2.0,11.0,65,0.00,,,0.00,VWS V14.01,2013-02-04 21:45:00,
2013-02-04 15:50:00,18.5,8.7,29.91,NNE,15,0.0,7.0,65,0.00,,,0.00,VWS V14.01,2013-02-04 21:50:00,
2013-02-04 15:55:00,18.5,8.4,29.91,NNW,342,2.0,6.0,64,0.00,,,0.00,VWS V14.01,2013-02-04 21:55:00,
2013-02-04 16:00:00,18.6,8.1,29.91,North,360,1.0,7.0,63,0.00,,,0.00,VWS V14.01,2013-02-04 22:00:00,
2013-02-04 16:05:00,18.7,7.9,29.91,North,360,3.0,7.0,62,0.00,,,0.00,VWS V14.01,2013-02-04 22:05:00,
2013-02-04 16:06:00,18.7,7.9,29.91,NNW,340,2.0,4.0,62,0.00,,,0.00,VWS V14.01,2013-02-04 22:06:00,
2013-02-04 16:10:00,18.7,7.5,29.91,NNE,15,1.0,4.0,61,0.00,,,0.00,VWS V14.01,2013-02-04 22:10:00,
2013-02-04 16:11:00,18.6,7.4,29.91,NNE,14,2.0,4.0,61,0.00,,,0.00,VWS V14.01,2013-02-04 22:11:00,
2013-02-04 16:15:00,18.6,7.4,29.91,NNE,13,1.0,3.0,61,0.00,,,0.00,VWS V14.01,2013-02-04 22:15:00,
2013-02-04 16:16:00,18.7,7.5,29.91,NNE,13,1.0,3.0,61,0.00,,,0.00,VWS V14.01,2013-02-04 22:16:00,
2013-02-04 16:20:00,18.7,7.1,29.91,North,355,1.0,6.0,60,0.00,,,0.00,VWS V14.01,2013-02-04 22:20:00,
2013-02-04 16:21:00,18.7,7.1,29.91,North,355,1.0,6.0,60,0.00,,,0.00,VWS V14.01,2013-02-04 22:21:00,
2013-02-04 16:25:00,18.7,7.1,29.91,NNW,329,2.0,7.0,60,0.00,,,0.00,VWS V14.01,2013-02-04 22:25:00,
2013-02-04 16:26:00,18.7,7.1,29.91,NNW,329,1.0,7.0,60,0.00,,,0.00,VWS V14.01,2013-02-04 22:26:00,
2013-02-04 16:30:00,18.6,7.0,29.92,NNW,348,0.0,8.0,60,0.00,,,0.00,VWS V14.01,2013-02-04 22:30:00,
2013-02-04 16:31:00,18.6,7.0,29.92,North,355,3.0,8.0,60,0.00,,,0.00,VWS V14.01,2013-02-04 22:31:00,
2013-02-04 16:35:00,18.3,6.4,29.92,NNW,341,6.0,8.0,59,0.00,,,0.00,VWS V14.01,2013-02-04 22:35:00,
2013-02-04 16:36:00,18.2,6.3,29.92,North,355,1.0,8.0,59,0.00,,,0.00,VWS V14.01,2013-02-04 22:36:00,
2013-02-04 16:40:00,18.0,6.1,29.92,North,351,3.0,8.0,59,0.00,,,0.00,VWS V14.01,2013-02-04 22:40:00,
2013-02-04 16:41:00,18.1,6.6,29.92,North,351,0.0,6.0,60,0.00,,,0.00,VWS V14.01,2013-02-04 22:41:00,
2013-02-04 16:45:00,18.1,6.6,29.92,North,355,0.0,3.0,60,0.00,,,0.00,VWS V14.01,2013-02-04 22:45:00,
2013-02-04 16:46:00,18.0,6.5,29.92,NNE,17,7.0,7.0,60,0.00,,,0.00,VWS V14.01,2013-02-04 22:46:00,
2013-02-04 16:50:00,17.7,5.8,29.92,NNW,340,6.0,8.0,59,0.00,,,0.00,VWS V14.01,2013-02-04 22:50:00,
2013-02-04 16:51:00,17.5,5.6,29.92,North,5,2.0,7.0,59,0.00,,,0.00,VWS V14.01,2013-02-04 22:51:00,
2013-02-04 16:55:00,17.2,5.3,29.93,NNW,337,2.0,7.0,59,0.00,,,0.00,VWS V14.01,2013-02-04 22:55:00,
2013-02-04 16:56:00,17.1,5.2,29.92,North,350,2.0,7.0,59,0.00,,,0.00,VWS V14.01,2013-02-04 22:56:00,
2013-02-04 17:00:00,16.9,5.4,29.93,North,349,3.0,7.0,60,0.00,,,0.00,VWS V14.01,2013-02-04 23:00:00,
2013-02-04 17:01:00,16.8,5.3,29.93,NNW,346,2.0,7.0,60,0.00,,,0.00,VWS V14.01,2013-02-04 23:01:00,
2013-02-04 17:05:00,16.6,5.2,29.93,NNW,347,2.0,5.0,60,0.00,,,0.00,VWS V14.01,2013-02-04 23:05:00,
2013-02-04 17:06:00,16.4,5.3,29.93,NNW,347,1.0,5.0,61,0.00,,,0.00,VWS V14.01,2013-02-04 23:06:00,
2013-02-04 17:10:00,16.3,5.2,29.93,NNW,342,2.0,5.0,61,0.00,,,0.00,VWS V14.01,2013-02-04 23:10:00,
2013-02-04 17:12:00,16.2,5.1,29.93,NNW,342,1.0,5.0,61,0.00,,,0.00,VWS V14.01,2013-02-04 23:12:00,
2013-02-04 17:15:00,16.1,5.0,29.93,NNW,342,4.0,6.0,61,0.00,,,0.00,VWS V14.01,2013-02-04 23:15:00,
2013-02-04 17:17:00,16.1,5.4,29.93,NNW,341,1.0,6.0,62,0.00,,,0.00,VWS V14.01,2013-02-04 23:17:00,
2013-02-04 17:20:00,16.0,5.3,29.93,NNW,341,0.0,3.0,62,0.00,,,0.00,VWS V14.01,2013-02-04 23:20:00,
2013-02-04 17:22:00,16.0,5.3,29.93,NNW,341,0.0,3.0,62,0.00,,,0.00,VWS V14.01,2013-02-04 23:22:00,
2013-02-04 17:25:00,15.9,5.6,29.93,NNW,340,2.0,2.0,63,0.00,,,0.00,VWS V14.01,2013-02-04 23:25:00,
2013-02-04 17:27:00,15.9,5.6,29.93,NW,309,0.0,6.0,63,0.00,,,0.00,VWS V14.01,2013-02-04 23:27:00,
2013-02-04 17:30:00,15.9,5.9,29.93,NW,309,0.0,5.0,64,0.00,,,0.00,VWS V14.01,2013-02-04 23:30:00,
2013-02-04 17:32:00,15.9,5.9,29.93,NW,308,3.0,3.0,64,0.00,,,0.00,VWS V14.01,2013-02-04 23:32:00,
2013-02-04 17:35:00,15.9,5.9,29.93,NW,308,1.0,4.0,64,0.00,,,0.00,VWS V14.01,2013-02-04 23:35:00,
2013-02-04 17:37:00,15.8,5.8,29.93,NW,309,1.0,5.0,64,0.00,,,0.00,VWS V14.01,2013-02-04 23:37:00,
2013-02-04 17:40:00,15.7,5.4,29.93,NW,309,1.0,5.0,63,0.00,,,0.00,VWS V14.01,2013-02-04 23:40:00,
2013-02-04 17:42:00,15.6,5.6,29.93,NW,308,1.0,5.0,64,0.00,,,0.00,VWS V14.01,2013-02-04 23:42:00,
2013-02-04 17:45:00,15.6,5.9,29.93,NW,307,2.0,5.0,65,0.00,,,0.00,VWS V14.01,2013-02-04 23:45:00,
2013-02-04 17:47:00,15.4,6.1,29.93,NW,307,0.0,3.0,66,0.00,,,0.00,VWS V14.01,2013-02-04 23:47:00,
2013-02-04 17:50:00,15.4,6.1,29.93,NW,306,0.0,2.0,66,0.00,,,0.00,VWS V14.01,2013-02-04 23:50:00,
2013-02-04 17:52:00,15.3,6.0,29.93,WNW,300,0.0,5.0,66,0.00,,,0.00,VWS V14.01,2013-02-04 23:52:00,
2013-02-04 17:55:00,15.2,6.2,29.93,WNW,300,0.0,5.0,67,0.00,,,0.00,VWS V14.01,2013-02-04 23:55:00,
2013-02-04 17:57:00,14.8,5.5,29.94,WNW,289,3.0,8.0,66,0.00,,,0.00,VWS V14.01,2013-02-04 23:57:00,
2013-02-04 18:00:00,14.5,4.9,29.94,NW,306,6.0,8.0,65,0.00,,,0.00,VWS V14.01,2013-02-05 00:00:00,
2013-02-04 18:02:00,14.2,4.6,29.94,NW,310,5.0,8.0,65,0.00,,,0.00,VWS V14.01,2013-02-05 00:02:00,
2013-02-04 18:05:00,14.0,4.4,29.94,NW,323,1.0,8.0,65,0.00,,,0.00,VWS V14.01,2013-02-05 00:05:00,
2013-02-04 18:07:00,13.9,4.7,29.94,NW,304,4.0,7.0,66,0.00,,,0.00,VWS V14.01,2013-02-05 00:07:00,
2013-02-04 18:10:00,13.8,4.6,29.94,WNW,303,7.0,7.0,66,0.00,,,0.00,VWS V14.01,2013-02-05 00:10:00,
2013-02-04 18:12:00,13.7,4.5,29.94,NW,316,1.0,7.0,66,0.00,,,0.00,VWS V14.01,2013-02-05 00:12:00,
2013-02-04 18:15:00,13.6,4.4,29.94,WNW,299,5.0,7.0,66,0.00,,,0.00,VWS V14.01,2013-02-05 00:15:00,
2013-02-04 18:17:00,13.4,4.5,29.94,WNW,302,5.0,7.0,67,0.00,,,0.00,VWS V14.01,2013-02-05 00:17:00,
2013-02-04 18:20:00,13.4,4.5,29.94,WNW,299,1.0,6.0,67,0.00,,,0.00,VWS V14.01,2013-02-05 00:20:00,
2013-02-04 18:22:00,13.3,4.7,29.94,WNW,302,5.0,7.0,68,0.00,,,0.00,VWS V14.01,2013-02-05 00:22:00,
2013-02-04 18:25:00,13.2,4.3,29.94,WNW,294,2.0,6.0,67,0.00,,,0.00,VWS V14.01,2013-02-05 00:25:00,
2013-02-04 18:28:00,13.0,3.8,29.94,NW,304,1.0,6.0,66,0.00,,,0.00,VWS V14.01,2013-02-05 00:28:00,
2013-02-04 18:30:00,12.9,3.7,29.94,NW,304,4.0,6.0,66,0.00,,,0.00,VWS V14.01,2013-02-05 00:30:00,
2013-02-04 18:33:00,12.8,3.6,29.94,NW,306,6.0,6.0,66,0.00,,SCT037,0.00,VWS V14.01,2013-02-05 00:33:00,
2013-02-04 18:35:00,12.7,3.2,29.94,NW,305,2.0,6.0,65,0.00,,,0.00,VWS V14.01,2013-02-05 00:35:00,
2013-02-04 18:38:00,12.6,3.4,29.94,WNW,302,4.0,6.0,66,0.00,,SCT037,0.00,VWS V14.01,2013-02-05 00:38:00,
2013-02-04 18:40:00,12.6,3.4,29.94,WNW,301,4.0,6.0,66,0.00,,,0.00,VWS V14.01,2013-02-05 00:40:00,
2013-02-04 18:43:00,12.4,2.9,29.94,NW,309,4.0,7.0,65,0.00,,SCT037,0.00,VWS V14.01,2013-02-05 00:43:00,
2013-02-04 18:45:00,12.3,2.8,29.94,NW,307,4.0,7.0,65,0.00,,,0.00,VWS V14.01,2013-02-05 00:45:00,
2013-02-04 18:48:00,12.3,3.5,29.94,WNW,296,4.0,7.0,67,0.00,,SCT037,0.00,VWS V14.01,2013-02-05 00:48:00,
2013-02-04 18:50:00,12.2,3.0,29.94,WNW,297,0.0,7.0,66,0.00,,,0.00,VWS V14.01,2013-02-05 00:50:00,
2013-02-04 18:53:00,12.1,3.3,29.94,WNW,300,4.0,6.0,67,0.00,,SCT037,0.00,VWS V14.01,2013-02-05 00:53:00,
2013-02-04 18:55:00,12.1,3.3,29.94,WNW,300,4.0,6.0,67,0.00,,,0.00,VWS V14.01,2013-02-05 00:55:00,
2013-02-04 18:58:00,12.0,3.2,29.94,WNW,299,0.0,6.0,67,0.00,,SCT037,0.00,VWS V14.01,2013-02-05 00:58:00,
2013-02-04 19:00:00,12.0,3.5,29.94,WNW,298,0.0,6.0,68,0.00,,,0.00,VWS V14.01,2013-02-05 01:00:00,
2013-02-04 19:03:00,11.9,3.4,29.94,WNW,290,4.0,6.0,68,0.00,,SCT037,0.00,VWS V14.01,2013-02-05 01:03:00,
2013-02-04 19:05:00,11.9,3.4,29.94,WNW,293,5.0,6.0,68,0.00,,,0.00,VWS V14.01,2013-02-05 01:05:00,
2013-02-04 19:08:00,11.8,3.6,29.94,WNW,297,5.0,6.0,69,0.00,,SCT037,0.00,VWS V14.01,2013-02-05 01:08:00,
2013-02-04 19:10:00,11.7,3.5,29.94,WNW,297,0.0,5.0,69,0.00,,,0.00,VWS V14.01,2013-02-05 01:10:00,
2013-02-04 19:13:00,11.7,3.8,29.94,WNW,296,3.0,6.0,70,0.00,,SCT037,0.00,VWS V14.01,2013-02-05 01:13:00,
2013-02-04 19:15:00,11.6,3.7,29.94,WNW,300,4.0,6.0,70,0.00,,,0.00,VWS V14.01,2013-02-05 01:15:00,
2013-02-04 19:18:00,11.6,4.0,29.94,WNW,298,5.0,7.0,71,0.00,,SCT037,0.00,VWS V14.01,2013-02-05 01:18:00,
2013-02-04 19:20:00,11.5,3.9,29.94,WNW,295,4.0,7.0,71,0.00,,,0.00,VWS V14.01,2013-02-05 01:20:00,
2013-02-04 19:23:00,11.4,3.5,29.95,WNW,302,4.0,6.0,70,0.00,,SCT037,0.00,VWS V14.01,2013-02-05 01:23:00,
2013-02-04 19:25:00,11.4,3.8,29.95,WNW,301,2.0,6.0,71,0.00,,,0.00,VWS V14.01,2013-02-05 01:25:00,
2013-02-04 19:29:00,11.5,3.9,29.95,WNW,300,0.0,5.0,71,0.00,,SCT037,0.00,VWS V14.01,2013-02-05 01:29:00,
2013-02-04 19:30:00,11.6,4.0,29.95,WNW,299,1.0,5.0,71,0.00,,,0.00,VWS V14.01,2013-02-05 01:30:00,
2013-02-04 19:34:00,11.5,3.9,29.95,West,281,0.0,5.0,71,0.00,,SCT037,0.00,VWS V14.01,2013-02-05 01:34:00,
2013-02-04 19:35:00,11.6,4.0,29.95,West,281,0.0,5.0,71,0.00,,,0.00,VWS V14.01,2013-02-05 01:35:00,
2013-02-04 19:39:00,11.4,3.5,29.95,NW,305,3.0,7.0,70,0.00,,SCT037,0.00,VWS V14.01,2013-02-05 01:39:00,
2013-02-04 19:40:00,11.4,3.5,29.95,NW,305,3.0,7.0,70,0.00,,,0.00,VWS V14.01,2013-02-05 01:40:00,
2013-02-04 19:44:00,11.4,3.8,29.95,WNW,296,4.0,7.0,71,0.00,,SCT037,0.00,VWS V14.01,2013-02-05 01:44:00,
2013-02-04 19:45:00,11.4,3.8,29.95,WNW,297,3.0,7.0,71,0.00,,,0.00,VWS V14.01,2013-02-05 01:45:00,
2013-02-04 19:49:00,11.4,3.8,29.95,WNW,298,5.0,7.0,71,0.00,,SCT037,0.00,VWS V14.01,2013-02-05 01:49:00,
2013-02-04 19:50:00,11.4,3.8,29.95,WNW,301,1.0,7.0,71,0.00,,,0.00,VWS V14.01,2013-02-05 01:50:00,
2013-02-04 19:54:00,11.3,3.4,29.96,NW,305,1.0,8.0,70,0.00,,SCT037,0.00,VWS V14.01,2013-02-05 01:54:00,
2013-02-04 19:55:00,11.4,3.5,29.96,NW,305,1.0,8.0,70,0.00,,,0.00,VWS V14.01,2013-02-05 01:55:00,
2013-02-04 19:59:00,11.5,3.9,29.96,WNW,297,1.0,5.0,71,0.00,,SCT037,0.00,VWS V14.01,2013-02-05 01:59:00,
2013-02-04 20:00:00,11.5,3.9,29.97,WNW,291,1.0,5.0,71,0.00,,,0.00,VWS V14.01,2013-02-05 02:00:00,
2013-02-04 20:04:00,11.5,3.9,29.96,West,274,6.0,6.0,71,0.00,,SCT037,0.00,VWS V14.01,2013-02-05 02:04:00,
2013-02-04 20:05:00,11.4,3.8,29.96,West,274,0.0,6.0,71,0.00,,,0.00,VWS V14.01,2013-02-05 02:05:00,
2013-02-04 20:09:00,11.4,3.5,29.97,West,278,4.0,6.0,70,0.00,,SCT037,0.00,VWS V14.01,2013-02-05 02:09:00,
2013-02-04 20:10:00,11.4,3.5,29.97,WNW,284,4.0,6.0,70,0.00,,,0.00,VWS V14.01,2013-02-05 02:10:00,
2013-02-04 20:14:00,11.6,3.7,29.97,WNW,290,1.0,5.0,70,0.00,,SCT037,0.00,VWS V14.01,2013-02-05 02:14:00,
2013-02-04 20:15:00,11.6,3.7,29.97,WNW,289,4.0,5.0,70,0.00,,,0.00,VWS V14.01,2013-02-05 02:15:00,
2013-02-04 20:19:00,11.8,4.2,29.97,WNW,286,3.0,5.0,71,0.00,,SCT037,0.00,VWS V14.01,2013-02-05 02:19:00,
2013-02-04 20:20:00,11.8,4.2,29.97,WNW,286,2.0,5.0,71,0.00,,,0.00,VWS V14.01,2013-02-05 02:20:00,
2013-02-04 20:24:00,11.9,4.0,29.97,West,275,4.0,7.0,70,0.00,,SCT037,0.00,VWS V14.01,2013-02-05 02:24:00,
2013-02-04 20:25:00,11.9,4.0,29.97,West,275,4.0,7.0,70,0.00,,,0.00,VWS V14.01,2013-02-05 02:25:00,
2013-02-04 20:29:00,11.9,4.0,29.97,West,260,1.0,5.0,70,0.00,,SCT037,0.00,VWS V14.01,2013-02-05 02:29:00,
2013-02-04 20:30:00,11.9,4.0,29.97,West,260,1.0,6.0,70,0.00,,,0.00,VWS V14.01,2013-02-05 02:30:00,
2013-02-04 20:34:00,11.8,3.9,29.97,West,263,0.0,5.0,70,0.00,,SCT037,0.00,VWS V14.01,2013-02-05 02:34:00,
2013-02-04 20:35:00,11.8,3.9,29.97,West,263,0.0,5.0,70,0.00,,,0.00,VWS V14.01,2013-02-05 02:35:00,
2013-02-04 20:40:00,12.0,4.1,29.97,WSW,251,0.0,2.0,70,0.00,,SCT037,0.00,VWS V14.01,2013-02-05 02:40:00,
2013-02-04 20:45:00,12.0,4.1,29.97,WSW,249,1.0,2.0,70,0.00,,SCT037,0.00,VWS V14.01,2013-02-05 02:45:00,
2013-02-04 20:50:00,11.9,4.0,29.97,WSW,251,2.0,2.0,70,0.00,,SCT037,0.00,VWS V14.01,2013-02-05 02:50:00,
2013-02-04 20:55:00,11.7,3.8,29.97,WSW,256,0.0,2.0,70,0.00,,SCT037,0.00,VWS V14.01,2013-02-05 02:55:00,
2013-02-04 21:00:00,11.7,4.1,29.96,WSW,254,0.0,1.0,71,0.00,,SCT037,0.00,VWS V14.01,2013-02-05 03:00:00,
2013-02-04 21:05:00,11.6,4.0,29.96,WSW,254,0.0,1.0,71,0.00,,BKN170,0.00,VWS V14.01,2013-02-05 03:05:00,
2013-02-04 21:10:00,11.7,4.1,29.96,WSW,254,1.0,2.0,71,0.00,,BKN170,0.00,VWS V14.01,2013-02-05 03:10:00,
2013-02-04 21:15:00,11.6,4.0,29.96,WSW,254,0.0,2.0,71,0.00,,BKN170,0.00,VWS V14.01,2013-02-05 03:15:00,
2013-02-04 21:20:00,11.2,3.7,29.96,WSW,257,1.0,3.0,71,0.00,,BKN170,0.00,VWS V14.01,2013-02-05 03:20:00,
2013-02-04 21:25:00,11.1,3.8,29.96,WSW,257,1.0,3.0,72,0.00,,BKN170,0.00,VWS V14.01,2013-02-05 03:25:00,
2013-02-04 21:30:00,11.0,3.8,29.96,WSW,258,0.0,2.0,72,0.00,,BKN170,0.00,VWS V14.01,2013-02-05 03:30:00,
2013-02-04 21:35:00,10.9,3.7,29.95,WSW,258,0.0,2.0,72,0.00,,,0.00,VWS V14.01,2013-02-05 03:35:00,
2013-02-04 21:36:00,10.9,4.0,29.95,WSW,258,0.0,1.0,73,0.00,,BKN170,0.00,VWS V14.01,2013-02-05 03:36:00,
2013-02-04 21:40:00,10.9,4.0,29.95,WSW,258,0.0,2.0,73,0.00,,,0.00,VWS V14.01,2013-02-05 03:40:00,
2013-02-04 21:41:00,10.9,4.0,29.95,WSW,258,1.0,2.0,73,0.00,,BKN170,0.00,VWS V14.01,2013-02-05 03:41:00,
2013-02-04 21:45:00,10.9,4.0,29.94,WSW,258,0.0,2.0,73,0.00,,,0.00,VWS V14.01,2013-02-05 03:45:00,
2013-02-04 21:46:00,10.9,4.0,29.94,WSW,257,0.0,1.0,73,0.00,,BKN170,0.00,VWS V14.01,2013-02-05 03:46:00,
2013-02-04 21:50:00,10.8,3.9,29.94,WSW,257,1.0,2.0,73,0.00,,,0.00,VWS V14.01,2013-02-05 03:50:00,
2013-02-04 21:51:00,10.8,3.9,29.94,WSW,257,0.0,2.0,73,0.00,,BKN170,0.00,VWS V14.01,2013-02-05 03:51:00,
2013-02-04 21:55:00,10.8,3.9,29.94,WSW,257,0.0,1.0,73,0.00,,,0.00,VWS V14.01,2013-02-05 03:55:00,
2013-02-04 21:56:00,10.8,4.2,29.94,WSW,257,0.0,1.0,74,0.00,,BKN170,0.00,VWS V14.01,2013-02-05 03:56:00,
2013-02-04 22:00:00,10.8,4.2,29.93,WSW,257,0.0,1.0,74,0.00,,,0.00,VWS V14.01,2013-02-05 04:00:00,
2013-02-04 22:01:00,10.7,4.1,29.93,WSW,257,0.0,1.0,74,0.00,,BKN170,0.00,VWS V14.01,2013-02-05 04:01:00,
2013-02-04 22:05:00,10.6,4.0,29.93,WSW,257,0.0,1.0,74,0.00,,,0.00,VWS V14.01,2013-02-05 04:05:00,
2013-02-04 22:06:00,10.5,3.6,29.93,WSW,254,0.0,2.0,73,0.00,,BKN170,0.00,VWS V14.01,2013-02-05 04:06:00,
2013-02-04 22:10:00,10.4,3.8,29.94,SW,233,1.0,3.0,74,0.00,,,0.00,VWS V14.01,2013-02-05 04:10:00,
2013-02-04 22:11:00,10.4,3.8,29.93,SW,232,0.0,2.0,74,0.00,,BKN170,0.00,VWS V14.01,2013-02-05 04:11:00,
2013-02-04 22:15:00,10.2,3.6,29.94,SW,232,1.0,2.0,74,0.00,,,0.00,VWS V14.01,2013-02-05 04:15:00,
2013-02-04 22:16:00,10.2,3.6,29.94,WSW,238,2.0,3.0,74,0.00,,BKN170,0.00,VWS V14.01,2013-02-05 04:16:00,
2013-02-04 22:20:00,10.1,3.5,29.94,WSW,238,1.0,4.0,74,0.00,,,0.00,VWS V14.01,2013-02-05 04:20:00,
2013-02-04 22:21:00,9.9,3.3,29.94,SW,235,0.0,5.0,74,0.00,,BKN170,0.00,VWS V14.01,2013-02-05 04:21:00,
2013-02-04 22:25:00,10.0,3.7,29.93,SW,230,0.0,5.0,75,0.00,,,0.00,VWS V14.01,2013-02-05 04:25:00,
2013-02-04 22:26:00,10.0,3.7,29.93,SW,221,2.0,2.0,75,0.00,,BKN170,0.00,VWS V14.01,2013-02-05 04:26:00,
2013-02-04 22:30:00,10.0,3.7,29.93,SW,232,3.0,4.0,75,0.00,,,0.00,VWS V14.01,2013-02-05 04:30:00,
2013-02-04 22:32:00,10.0,3.7,29.93,SW,228,0.0,3.0,75,0.00,,BKN170,0.00,VWS V14.01,2013-02-05 04:32:00,
2013-02-04 22:35:00,10.0,3.7,29.93,SW,228,0.0,2.0,75,0.00,,,0.00,VWS V14.01,2013-02-05 04:35:00,
2013-02-04 22:37:00,10.0,3.7,29.93,SW,228,0.0,2.0,75,0.00,,BKN170,0.00,VWS V14.01,2013-02-05 04:37:00,
2013-02-04 22:40:00,10.0,3.7,29.93,SW,225,0.0,3.0,75,0.00,,,0.00,VWS V14.01,2013-02-05 04:40:00,
2013-02-04 22:42:00,10.0,3.7,29.94,SW,226,1.0,3.0,75,0.00,,BKN170,0.00,VWS V14.01,2013-02-05 04:42:00,
2013-02-04 22:45:00,10.0,3.7,29.94,SW,226,0.0,3.0,75,0.00,,,0.00,VWS V14.01,2013-02-05 04:45:00,
2013-02-04 22:47:00,10.1,3.8,29.93,SW,223,0.0,2.0,75,0.00,,BKN170,0.00,VWS V14.01,2013-02-05 04:47:00,
2013-02-04 22:50:00,10.1,3.8,29.93,SW,223,0.0,1.0,75,0.00,,,0.00,VWS V14.01,2013-02-05 04:50:00,
2013-02-04 22:52:00,10.1,3.8,29.93,SW,223,2.0,3.0,75,0.00,,BKN170,0.00,VWS V14.01,2013-02-05 04:52:00,
2013-02-04 22:55:00,10.1,3.8,29.93,SW,224,0.0,3.0,75,0.00,,,0.00,VWS V14.01,2013-02-05 04:55:00,
2013-02-04 22:57:00,10.0,3.7,29.93,SW,225,2.0,3.0,75,0.00,,BKN170,0.00,VWS V14.01,2013-02-05 04:57:00,
2013-02-04 23:00:00,9.9,3.6,29.93,SW,225,0.0,2.0,75,0.00,,BKN170,0.00,VWS V14.01,2013-02-05 05:00:00,
2013-02-04 23:01:00,9.9,3.6,29.93,SW,225,0.0,2.0,75,0.00,,BKN170,0.00,VWS V14.01,2013-02-05 05:01:00,
2013-02-04 23:02:00,9.9,3.6,29.93,SW,226,2.0,2.0,75,0.00,,BKN170,0.00,VWS V14.01,2013-02-05 05:02:00,
2013-02-04 23:05:00,9.9,3.6,29.93,SW,227,1.0,3.0,75,0.00,,BKN170,0.00,VWS V14.01,2013-02-05 05:05:00,
2013-02-04 23:10:00,9.8,3.5,29.93,SW,232,3.0,4.0,75,0.00,,BKN170,0.00,VWS V14.01,2013-02-05 05:10:00,
2013-02-04 23:15:00,9.8,3.5,29.93,SW,231,0.0,3.0,75,0.00,,BKN170,0.00,VWS V14.01,2013-02-05 05:15:00,
2013-02-04 23:20:00,9.9,3.6,29.93,SW,234,2.0,4.0,75,0.00,,BKN170,0.00,VWS V14.01,2013-02-05 05:20:00,
2013-02-04 23:25:00,9.9,3.6,29.93,SW,227,3.0,4.0,75,0.00,,BKN170,0.00,VWS V14.01,2013-02-05 05:25:00,
2013-02-04 23:30:00,9.9,3.6,29.93,SW,224,1.0,4.0,75,0.00,,,0.00,VWS V14.01,2013-02-05 05:30:00,
2013-02-04 23:31:00,9.9,3.6,29.93,WSW,242,1.0,5.0,75,0.00,,BKN170,0.00,VWS V14.01,2013-02-05 05:31:00,
2013-02-04 23:35:00,9.9,3.6,29.93,SW,234,2.0,3.0,75,0.00,,,0.00,VWS V14.01,2013-02-05 05:35:00,
2013-02-04 23:36:00,9.9,3.6,29.93,SW,233,2.0,2.0,75,0.00,,BKN170,0.00,VWS V14.01,2013-02-05 05:36:00,
2013-02-04 23:40:00,9.8,3.5,29.93,SW,234,2.0,3.0,75,0.00,,,0.00,VWS V14.01,2013-02-05 05:40:00,
2013-02-04 23:41:00,9.8,3.5,29.93,SW,233,0.0,3.0,75,0.00,,BKN170,0.00,VWS V14.01,2013-02-05 05:41:00,
2013-02-04 23:45:00,9.8,3.5,29.93,SW,236,1.0,3.0,75,0.00,,,0.00,VWS V14.01,2013-02-05 05:45:00,
2013-02-04 23:46:00,9.8,3.5,29.93,SW,234,3.0,3.0,75,0.00,,BKN170,0.00,VWS V14.01,2013-02-05 05:46:00,
2013-02-04 23:50:00,9.8,3.5,29.93,SW,229,2.0,5.0,75,0.00,,,0.00,VWS V14.01,2013-02-05 05:50:00,
2013-02-04 23:51:00,9.7,3.4,29.93,SW,232,1.0,5.0,75,0.00,,BKN170,0.00,VWS V14.01,2013-02-05 05:51:00,
2013-02-04 23:55:00,9.7,3.4,29.93,SW,217,0.0,4.0,75,0.00,,,0.00,VWS V14.01,2013-02-05 05:55:00,
2013-02-04 23:56:00,9.7,3.4,29.92,SW,218,1.0,4.0,75,0.00,,BKN170,0.00,VWS V14.01,2013-02-05 05:56:00,